Time;durP1;ratioP1;P1;durP2;ratioP2;P2;SDS_P1;SDS_P2;PMS_P1;PMS_P2;Temp;Humidity;BMP_temperature;BMP_pressure;BME280_temperature;BME280_humidity;BME280_pressure;Samples;Min_cycle;Max_cycle;Signal;HPM_P1;HPM_P2
2021/09/20 00:00:05;;;;;;;3.50;1.40;;;;;;;-144.51;100.00;69251.94;5111691;28;20040;-62
2021/09/20 00:02:50;;;;;;;7.20;1.60;;;;;;;-144.51;100.00;69251.94;5113773;28;20039;-62
2021/09/20 00:05:34;;;;;;;6.47;1.55;;;;;;;-144.51;100.00;69251.94;5109275;28;20626;-62
2021/09/20 00:08:19;;;;;;;7.32;0.93;;;;;;;-144.51;100.00;69251.94;5113276;28;20061;-62
2021/09/20 00:11:04;;;;;;;3.63;1.00;;;;;;;-144.51;100.00;69251.94;5107403;28;20035;-62
2021/09/20 00:13:50;;;;;;;6.60;1.55;;;;;;;-144.51;100.00;69251.94;5106950;28;20043;-62
2021/09/20 00:16:35;;;;;;;2.95;1.50;;;;;;;-144.51;100.00;69251.94;5110852;28;20511;-63
2021/09/20 00:19:19;;;;;;;3.58;1.38;;;;;;;-144.51;100.00;69251.94;5114954;28;20483;-62
2021/09/20 00:22:04;;;;;;;5.93;1.02;;;;;;;-144.51;100.00;69251.94;5111077;28;20044;-62
2021/09/20 00:24:49;;;;;;;4.78;1.52;;;;;;;-144.51;100.00;69251.94;5118707;28;20047;-62
2021/09/20 00:27:34;;;;;;;2.42;1.13;;;;;;;-144.51;100.00;69251.94;5113611;28;20039;-62
2021/09/20 00:30:20;;;;;;;3.78;1.42;;;;;;;-144.51;100.00;69251.94;5118838;28;20043;-62
2021/09/20 00:33:06;;;;;;;5.18;1.20;;;;;;;-144.51;100.00;69251.94;5114499;28;20044;-62
2021/09/20 00:35:51;;;;;;;2.55;1.13;;;;;;;-144.51;100.00;69251.94;5114639;28;20035;-62
2021/09/20 00:38:37;;;;;;;2.97;1.05;;;;;;;-144.51;100.00;69251.94;5113182;28;20040;-61
2021/09/20 00:41:22;;;;;;;2.85;0.80;;;;;;;-144.51;100.00;69251.94;5117309;28;20036;-62
2021/09/20 00:44:07;;;;;;;2.00;0.90;;;;;;;-144.51;100.00;69251.94;5107927;28;20479;-61
2021/09/20 00:46:52;;;;;;;5.65;0.90;;;;;;;-144.51;100.00;69251.94;5109002;28;20035;-60
2021/09/20 00:49:36;;;;;;;3.22;0.98;;;;;;;-144.51;100.00;69251.94;5115969;28;20040;-61
2021/09/20 00:52:21;;;;;;;1.35;0.98;;;;;;;-144.51;100.00;69251.94;5111081;28;20039;-62
2021/09/20 00:55:07;;;;;;;4.20;1.00;;;;;;;-144.51;100.00;69251.94;5113703;28;20032;-62
2021/09/20 00:57:53;;;;;;;3.60;1.00;;;;;;;-144.51;100.00;69251.94;5115849;28;20040;-63
2021/09/20 01:00:38;;;;;;;6.80;1.27;;;;;;;-144.51;100.00;69251.94;5115012;28;20047;-62
2021/09/20 01:03:24;;;;;;;2.15;0.63;;;;;;;-144.51;100.00;69251.94;5107881;28;20514;-63
2021/09/20 01:06:09;;;;;;;4.22;1.23;;;;;;;-144.51;100.00;69251.94;5109475;28;20036;-63
2021/09/20 01:08:55;;;;;;;7.22;0.65;;;;;;;-144.51;100.00;69251.94;5113982;28;20032;-63
2021/09/20 01:11:41;;;;;;;4.57;1.30;;;;;;;-144.51;100.00;69251.94;5111039;28;20043;-61
2021/09/20 01:14:25;;;;;;;3.30;0.80;;;;;;;-144.51;100.00;69251.94;5108316;28;20410;-61
2021/09/20 01:17:11;;;;;;;2.00;0.73;;;;;;;-144.51;100.00;69251.94;5114922;28;20414;-61
2021/09/20 01:19:56;;;;;;;1.45;0.75;;;;;;;-144.51;100.00;69251.94;5105634;28;20040;-62
2021/09/20 01:22:42;;;;;;;3.30;0.68;;;;;;;-144.51;100.00;69251.94;5107409;28;20044;-61
2021/09/20 01:25:28;;;;;;;1.38;0.50;;;;;;;-144.51;100.00;69251.94;5114521;28;20027;-61
2021/09/20 01:28:12;;;;;;;5.18;0.80;;;;;;;-144.51;100.00;69251.94;5113088;28;20502;-61
2021/09/20 01:30:57;;;;;;;3.55;0.82;;;;;;;-144.51;100.00;69251.94;5113090;28;20039;-63
2021/09/20 01:33:43;;;;;;;3.65;0.80;;;;;;;-144.51;100.00;69251.94;5108476;28;20044;-62
2021/09/20 01:36:28;;;;;;;2.17;0.73;;;;;;;-144.51;100.00;69251.94;5110963;28;20658;-63
2021/09/20 01:39:18;;;;;;;5.15;1.52;;;;;;;-144.51;100.00;69251.94;5112061;28;20035;-62
2021/09/20 01:42:05;;;;;;;5.75;0.90;;;;;;;-144.51;100.00;69251.94;5110426;28;20044;-62
2021/09/20 01:44:50;;;;;;;7.40;0.80;;;;;;;-144.51;100.00;69251.94;5105803;28;20039;-61
2021/09/20 01:47:36;;;;;;;1.55;0.50;;;;;;;-144.51;100.00;69251.94;5109806;28;20511;-61
2021/09/20 01:50:21;;;;;;;1.25;0.50;;;;;;;-144.51;100.00;69251.94;5113720;28;20040;-61
2021/09/20 01:53:07;;;;;;;1.25;0.77;;;;;;;-144.51;100.00;69251.94;5110035;28;20399;-61
2021/09/20 01:55:52;;;;;;;1.60;0.35;;;;;;;-144.51;100.00;69251.94;5101996;28;20044;-61
2021/09/20 01:58:36;;;;;;;5.70;0.52;;;;;;;-144.51;100.00;69251.94;5109118;28;20039;-61
2021/09/20 02:01:22;;;;;;;7.57;0.57;;;;;;;-144.51;100.00;69251.94;5111118;28;20491;-61
2021/09/20 02:04:07;;;;;;;2.42;0.60;;;;;;;-144.51;100.00;69251.94;5107456;28;20035;-61
2021/09/20 02:06:52;;;;;;;1.02;0.40;;;;;;;-144.51;100.00;69251.94;5110173;28;20044;-61
2021/09/20 02:09:37;;;;;;;1.42;0.60;;;;;;;-144.51;100.00;69251.94;5112606;28;20383;-60
2021/09/20 02:12:22;;;;;;;3.72;0.50;;;;;;;-144.51;100.00;69251.94;5109978;28;20039;-61
2021/09/20 02:15:09;;;;;;;3.85;0.55;;;;;;;-144.51;100.00;69251.94;5109299;28;20040;-60
2021/09/20 02:17:53;;;;;;;3.40;0.43;;;;;;;-144.51;100.00;69251.94;5113047;28;20051;-61
2021/09/20 02:20:38;;;;;;;2.42;0.73;;;;;;;-144.51;100.00;69251.94;5112753;28;20039;-61
2021/09/20 02:23:23;;;;;;;2.92;0.88;;;;;;;-144.51;100.00;69251.94;5110280;28;20419;-61
2021/09/20 02:26:08;;;;;;;3.28;0.68;;;;;;;-144.51;100.00;69251.94;5112725;28;20032;-61
2021/09/20 02:28:53;;;;;;;0.95;0.60;;;;;;;-144.51;100.00;69251.94;5110164;28;20044;-61
2021/09/20 02:31:39;;;;;;;0.98;0.50;;;;;;;-144.51;100.00;69251.94;5114130;28;20036;-61
2021/09/20 02:34:24;;;;;;;6.10;1.10;;;;;;;-144.51;100.00;69251.94;5117591;28;20499;-61
2021/09/20 02:37:09;;;;;;;1.42;0.60;;;;;;;-144.51;100.00;69251.94;5115469;28;20052;-61
2021/09/20 02:39:54;;;;;;;0.80;0.50;;;;;;;-144.51;100.00;69251.94;5118115;28;20039;-61
2021/09/20 02:42:39;;;;;;;1.63;0.60;;;;;;;-144.51;100.00;69251.94;5109404;28;20035;-61
2021/09/20 02:45:24;;;;;;;2.85;0.63;;;;;;;-144.51;100.00;69251.94;5112427;28;20491;-60
2021/09/20 02:48:33;;;;;;;3.17;0.52;;;;;;;-144.51;100.00;69251.94;5100718;28;20496;-58
2021/09/20 02:51:39;;;;;;;3.83;0.52;;;;;;;-144.51;100.00;69251.94;5122525;28;20031;-60
2021/09/20 02:54:39;;;;;;;7.00;1.23;;;;;;;-144.51;100.00;69251.94;5088927;28;20036;-60
2021/09/20 02:57:24;;;;;;;1.58;0.55;;;;;;;-144.51;100.00;69251.94;5124704;28;20043;-60
2021/09/20 03:00:11;;;;;;;0.93;0.60;;;;;;;-144.51;100.00;69251.94;5125614;28;20040;-60
2021/09/20 03:02:56;;;;;;;4.50;1.33;;;;;;;-144.51;100.00;69251.94;5126956;28;20047;-60
2021/09/20 03:05:41;;;;;;;2.85;0.70;;;;;;;-144.51;100.00;69251.94;5126128;28;20039;-60
2021/09/20 03:08:26;;;;;;;2.55;0.80;;;;;;;-144.51;100.00;69251.94;5122285;28;20044;-60
2021/09/20 03:11:11;;;;;;;0.90;0.60;;;;;;;-144.51;100.00;69251.94;5127099;28;20035;-60
2021/09/20 03:13:56;;;;;;;4.72;0.95;;;;;;;-144.51;100.00;69251.94;5126446;28;20048;-61
2021/09/20 03:16:41;;;;;;;4.45;1.02;;;;;;;-144.51;100.00;69251.94;5125297;28;20036;-61
2021/09/20 03:19:26;;;;;;;4.13;1.20;;;;;;;-144.51;100.00;69251.94;5110474;28;20039;-62
2021/09/20 03:22:11;;;;;;;4.20;1.35;;;;;;;-144.51;100.00;69251.94;5104014;28;20040;-61
2021/09/20 03:24:56;;;;;;;2.92;0.98;;;;;;;-144.51;100.00;69251.94;5105007;28;20040;-60
2021/09/20 03:27:43;;;;;;;2.63;0.80;;;;;;;-144.51;100.00;69251.94;5101749;28;20048;-60
2021/09/20 03:30:27;;;;;;;2.22;0.98;;;;;;;-144.51;100.00;69251.94;5104084;28;20392;-59
2021/09/20 03:33:15;;;;;;;2.20;1.27;;;;;;;-144.51;100.00;69251.94;5099676;28;20515;-60
2021/09/20 03:36:01;;;;;;;2.63;1.10;;;;;;;-144.51;100.00;69251.94;5117203;28;20233;-60
2021/09/20 03:38:46;;;;;;;6.95;1.42;;;;;;;-144.51;100.00;69251.94;5119117;28;20410;-60
2021/09/20 03:41:31;;;;;;;1.55;1.13;;;;;;;-144.51;100.00;69251.94;5124569;28;20048;-60
2021/09/20 03:44:15;;;;;;;7.05;1.60;;;;;;;-144.51;100.00;69251.94;5124002;28;20039;-60
2021/09/20 03:47:00;;;;;;;2.70;1.73;;;;;;;-144.51;100.00;69251.94;5124118;28;20047;-59
2021/09/20 03:49:45;;;;;;;6.20;1.65;;;;;;;-144.51;100.00;69251.94;5126266;28;20036;-60
2021/09/20 03:52:31;;;;;;;3.95;1.70;;;;;;;-144.51;100.00;69251.94;5125781;28;20479;-60
2021/09/20 03:55:15;;;;;;;;;;;;;;;-144.51;100.00;69251.94;5127399;28;20043;-60
2021/09/20 03:58:00;;;;;;;3.95;1.45;;;;;;;-144.51;100.00;69251.94;5123169;28;19912;-60
2021/09/20 04:00:44;;;;;;;2.72;1.55;;;;;;;-144.51;100.00;69251.94;5126596;28;20040;-60
2021/09/20 04:03:30;;;;;;;8.48;1.52;;;;;;;-144.51;100.00;69251.94;5126548;28;20043;-60
2021/09/20 04:06:14;;;;;;;;;;;;;;;-144.51;100.00;69251.94;5127170;28;20032;-60
2021/09/20 04:09:01;;;;;;;2.75;0.88;;;;;;;-144.51;100.00;69251.94;5120140;28;20309;-60
2021/09/20 04:11:46;;;;;;;12.77;2.38;;;;;;;-144.51;100.00;69251.94;5123149;28;20489;-61
2021/09/20 04:14:31;;;;;;;4.40;1.90;;;;;;;-144.51;100.00;69251.94;5123684;28;20043;-61
2021/09/20 04:17:16;;;;;;;2.67;1.75;;;;;;;-144.51;100.00;69251.94;5122722;28;20039;-60
2021/09/20 04:20:01;;;;;;;7.72;2.60;;;;;;;-144.51;100.00;69251.94;5124887;28;20044;-60
2021/09/20 04:22:46;;;;;;;12.25;2.35;;;;;;;-144.51;100.00;69251.94;5105580;28;20044;-60
2021/09/20 04:25:31;;;;;;;;;;;;;;;-144.51;100.00;69251.94;5104745;28;20043;-61
2021/09/20 04:28:16;;;;;;;6.70;1.80;;;;;;;-144.51;100.00;69251.94;5100768;28;19916;-60
2021/09/20 04:31:01;;;;;;;6.80;2.30;;;;;;;-144.51;100.00;69251.94;5105785;28;20048;-60
2021/09/20 04:33:46;;;;;;;2.90;1.65;;;;;;;-144.51;100.00;69251.94;5100343;28;20040;-60
2021/09/20 04:36:31;;;;;;;8.73;2.45;;;;;;;-144.51;100.00;69251.94;5122719;28;20044;-60
2021/09/20 04:39:17;;;;;;;8.38;2.75;;;;;;;-144.51;100.00;69251.94;5124089;28;20039;-60
2021/09/20 04:42:02;;;;;;;12.25;2.58;;;;;;;-144.51;100.00;69251.94;5124267;28;20043;-60
2021/09/20 04:44:48;;;;;;;6.50;1.95;;;;;;;-144.51;100.00;69251.94;5123515;28;20039;-60
2021/09/20 04:47:33;;;;;;;;;;;;;;;-144.51;100.00;69251.94;5121960;28;20674;-61
2021/09/20 04:50:17;;;;;;;7.28;1.98;;;;;;;-144.51;100.00;69251.94;5124680;28;19912;-60
2021/09/20 04:53:03;;;;;;;7.22;2.85;;;;;;;-144.51;100.00;69251.94;5123403;28;20048;-59
2021/09/20 04:55:48;;;;;;;4.43;2.08;;;;;;;-144.51;100.00;69251.94;5122430;28;20048;-60
2021/09/20 04:58:33;;;;;;;4.03;1.70;;;;;;;-144.51;100.00;69251.94;5118469;28;20043;-60
2021/09/20 05:01:18;;;;;;;7.88;2.55;;;;;;;-144.51;100.00;69251.94;5097201;28;20040;-60
2021/09/20 05:04:03;;;;;;;;;;;;;;;-144.51;100.00;69251.94;5109809;28;20039;-60
2021/09/20 05:06:47;;;;;;;12.02;2.53;;;;;;;-144.51;100.00;69251.94;5099315;28;19938;-60
2021/09/20 05:09:32;;;;;;;4.85;2.25;;;;;;;-144.51;100.00;69251.94;5102790;28;20052;-59
2021/09/20 05:12:18;;;;;;;8.30;1.65;;;;;;;-144.51;100.00;69251.94;5107696;28;20043;-60
2021/09/20 05:15:04;;;;;;;11.45;2.50;;;;;;;-144.51;100.00;69251.94;5122840;28;20047;-61
2021/09/20 05:17:48;;;;;;;;;;;;;;;-144.51;100.00;69251.94;5120652;28;20458;-60
2021/09/20 05:20:33;;;;;;;4.43;1.90;;;;;;;-144.51;100.00;69251.94;5124386;28;19915;-61
2021/09/20 05:23:18;;;;;;;;;;;;;;;-144.51;100.00;69251.94;5123699;28;20043;-61
2021/09/20 05:26:03;;;;;;;5.43;2.40;;;;;;;-144.51;100.00;69251.94;5123328;28;19912;-61
2021/09/20 05:28:48;;;;;;;4.57;1.60;;;;;;;-144.51;100.00;69251.94;5117385;28;20065;-60
2021/09/20 05:31:33;;;;;;;3.83;1.88;;;;;;;-144.51;100.00;69251.94;5122523;28;20051;-60
2021/09/20 05:34:18;;;;;;;6.63;2.88;;;;;;;-144.51;100.00;69251.94;5122607;28;20047;-60
2021/09/20 05:37:03;;;;;;;;;;;;;;;-144.51;100.00;69251.94;5122096;28;20035;-60
2021/09/20 05:39:48;;;;;;;4.80;2.03;;;;;;;-144.51;100.00;69251.94;5121982;28;19915;-60
2021/09/20 05:42:33;;;;;;;3.67;2.35;;;;;;;-144.51;100.00;69251.94;5122230;28;20040;-59
2021/09/20 05:45:17;;;;;;;;;;;;;;;-144.51;100.00;69251.94;5122162;28;20040;-60
2021/09/20 05:48:03;;;;;;;9.07;2.28;;;;;;;-144.51;100.00;69251.94;5118604;28;19911;-60
2021/09/20 05:50:48;;;;;;;6.10;2.35;;;;;;;-144.51;100.00;69251.94;5122226;28;20055;-60
2021/09/20 05:53:33;;;;;;;;;;;;;;;-144.51;100.00;69251.94;5122067;28;20047;-60
2021/09/20 05:56:17;;;;;;;4.00;2.28;;;;;;;-144.51;100.00;69251.94;5121950;28;19916;-61
2021/09/20 05:59:03;;;;;;;3.65;2.15;;;;;;;-144.51;100.00;69251.94;5115638;28;20044;-60
2021/09/20 06:01:48;;;;;;;8.85;2.80;;;;;;;-144.51;100.00;69251.94;5121640;28;20043;-60
2021/09/20 06:04:32;;;;;;;;;;;;;;;-144.51;100.00;69251.94;5122315;28;20044;-60
2021/09/20 06:07:17;;;;;;;4.95;2.95;;;;;;;-144.51;100.00;69251.94;5119701;28;19912;-59
2021/09/20 06:10:02;;;;;;;6.47;2.97;;;;;;;-144.51;100.00;69251.94;5115913;28;20036;-60
2021/09/20 06:12:47;;;;;;;8.55;2.67;;;;;;;-144.51;100.00;69251.94;5122849;28;20048;-60
2021/09/20 06:15:34;;;;;;;4.78;2.85;;;;;;;-144.51;100.00;69251.94;5123171;28;20043;-60
2021/09/20 06:18:19;;;;;;;5.78;2.15;;;;;;;-144.51;100.00;69251.94;5119043;28;20047;-60
2021/09/20 06:21:04;;;;;;;;;;;;;;;-144.51;100.00;69251.94;5123212;28;20047;-60
2021/09/20 06:23:48;;;;;;;4.07;2.92;;;;;;;-144.51;100.00;69251.94;5123377;28;19911;-60
2021/09/20 06:26:33;;;;;;;;;;;;;;;-144.51;100.00;69251.94;5123368;28;20387;-60
2021/09/20 06:29:18;;;;;;;4.63;2.83;;;;;;;-144.51;100.00;69251.94;5123169;28;20290;-60
2021/09/20 06:32:03;;;;;;;10.50;2.33;;;;;;;-144.51;100.00;69251.94;5122504;28;20035;-60
2021/09/20 06:34:48;;;;;;;6.53;2.90;;;;;;;-144.51;100.00;69251.94;5123410;28;20043;-60
2021/09/20 06:37:33;;;;;;;;;;;;;;;-144.51;100.00;69251.94;5121638;28;20036;-60
2021/09/20 06:40:18;;;;;;;8.10;2.30;;;;;;;-144.51;100.00;69251.94;5123193;28;19912;-60
2021/09/20 06:43:03;;;;;;;8.23;2.75;;;;;;;-144.51;100.00;69251.94;5122913;28;20043;-60
2021/09/20 06:45:48;;;;;;;7.68;2.35;;;;;;;-144.51;100.00;69251.94;5122979;28;20035;-60
2021/09/20 06:48:34;;;;;;;5.15;2.20;;;;;;;-144.51;100.00;69251.94;5116830;28;20487;-60
2021/09/20 06:51:18;;;;;;;8.63;2.72;;;;;;;-144.51;100.00;69251.94;5121616;28;20479;-60
2021/09/20 06:54:04;;;;;;;8.65;2.85;;;;;;;-144.51;100.00;69251.94;5122510;28;20051;-60
2021/09/20 06:56:49;;;;;;;8.90;3.00;;;;;;;-144.51;100.00;69251.94;5121320;28;20043;-60
2021/09/20 06:59:34;;;;;;;4.68;2.83;;;;;;;-144.51;100.00;69251.94;5122371;28;20443;-60
2021/09/20 07:02:19;;;;;;;12.13;2.47;;;;;;;-144.51;100.00;69251.94;5122931;28;20399;-60
2021/09/20 07:05:05;;;;;;;6.45;3.25;;;;;;;-144.51;100.00;69251.94;5122422;28;20047;-60
2021/09/20 07:07:50;;;;;;;5.95;3.28;;;;;;;-144.51;100.00;69251.94;5119362;28;20035;-60
2021/09/20 07:10:36;;;;;;;4.95;2.50;;;;;;;-144.51;100.00;69251.94;5121580;28;20059;-60
2021/09/20 07:13:21;;;;;;;5.40;2.80;;;;;;;-144.51;100.00;69251.94;5121871;28;20040;-60
2021/09/20 07:16:06;;;;;;;21.23;3.63;;;;;;;-144.51;100.00;69251.94;5120466;28;20048;-60
2021/09/20 07:18:50;;;;;;;6.68;2.53;;;;;;;-144.51;100.00;69251.94;5118087;28;20039;-60
2021/09/20 07:21:36;;;;;;;5.25;2.58;;;;;;;-144.51;100.00;69251.94;5123947;28;20398;-60
2021/09/20 07:24:21;;;;;;;6.88;2.55;;;;;;;-144.51;100.00;69251.94;5122980;28;20399;-60
2021/09/20 07:27:06;;;;;;;9.48;2.63;;;;;;;-144.51;100.00;69251.94;5124720;28;20044;-59
2021/09/20 07:29:50;;;;;;;8.25;3.38;;;;;;;-144.51;100.00;69251.94;5123967;28;20043;-60
2021/09/20 07:32:36;;;;;;;97.57;17.50;;;;;;;-144.51;100.00;69251.94;5119473;28;20051;-60
2021/09/20 07:35:22;;;;;;;72.30;15.20;;;;;;;-144.51;100.00;69251.94;5122524;28;20035;-60
2021/09/20 07:38:07;;;;;;;34.17;7.05;;;;;;;-144.51;100.00;69251.94;5118864;28;20048;-60
2021/09/20 07:40:52;;;;;;;10.15;3.70;;;;;;;-144.51;100.00;69251.94;5115865;28;20061;-60
2021/09/20 07:43:38;;;;;;;8.25;3.72;;;;;;;-144.51;100.00;69251.94;5122299;28;20063;-60
2021/09/20 07:46:23;;;;;;;8.55;3.85;;;;;;;-144.51;100.00;69251.94;5122342;28;20036;-60
2021/09/20 07:49:08;;;;;;;9.50;4.22;;;;;;;-144.51;100.00;69251.94;5116035;28;20047;-58
2021/09/20 07:51:53;;;;;;;8.18;3.88;;;;;;;-144.51;100.00;69251.94;5122292;28;20040;-60
2021/09/20 07:54:38;;;;;;;5.65;3.40;;;;;;;-144.51;100.00;69251.94;5121223;28;20051;-60
2021/09/20 07:57:25;;;;;;;6.07;3.70;;;;;;;-144.51;100.00;69251.94;5120313;28;20499;-60
2021/09/20 08:00:12;;;;;;;6.97;3.08;;;;;;;-144.51;100.00;69251.94;5121996;28;20483;-60
2021/09/20 08:02:57;;;;;;;6.43;3.17;;;;;;;-144.51;100.00;69251.94;5122118;28;20039;-60
2021/09/20 08:05:42;;;;;;;6.55;2.78;;;;;;;-144.51;100.00;69251.94;5121995;28;20031;-62
2021/09/20 08:08:27;;;;;;;11.18;3.55;;;;;;;-144.51;100.00;69251.94;5117628;28;20035;-61
2021/09/20 08:11:13;;;;;;;4.20;2.90;;;;;;;-144.51;100.00;69251.94;5124142;28;20415;-61
2021/09/20 08:13:58;;;;;;;4.50;3.13;;;;;;;-144.51;100.00;69251.94;5120311;28;20429;-63
2021/09/20 08:16:43;;;;;;;6.70;3.15;;;;;;;-144.51;100.00;69251.94;5121209;28;20044;-63
2021/09/20 08:19:28;;;;;;;8.15;3.03;;;;;;;-144.51;100.00;69251.94;5121246;28;20039;-63
2021/09/20 08:22:13;;;;;;;8.30;2.80;;;;;;;-144.51;100.00;69251.94;5111024;28;20479;-63
2021/09/20 08:24:58;;;;;;;6.35;3.08;;;;;;;-144.51;100.00;69251.94;5120215;28;20044;-63
2021/09/20 08:27:43;;;;;;;8.40;2.90;;;;;;;-144.51;100.00;69251.94;5116169;28;20036;-64
2021/09/20 08:30:28;;;;;;;37.95;4.68;;;;;;;-144.51;100.00;69251.94;5114532;28;20035;-64
2021/09/20 08:33:14;;;;;;;7.32;3.22;;;;;;;-144.51;100.00;69251.94;5101970;28;20039;-64
2021/09/20 08:36:00;;;;;;;10.05;3.25;;;;;;;-144.51;100.00;69251.94;5119362;28;20039;-64
2021/09/20 08:38:45;;;;;;;7.25;3.22;;;;;;;-144.51;100.00;69251.94;5115200;28;20043;-63
2021/09/20 08:41:31;;;;;;;7.70;4.00;;;;;;;-144.51;100.00;69251.94;5113117;28;20298;-62
2021/09/20 08:44:16;;;;;;;5.63;3.83;;;;;;;-144.51;100.00;69251.94;5115306;28;20487;-63
2021/09/20 08:47:00;;;;;;;6.53;3.63;;;;;;;-144.51;100.00;69251.94;5121863;28;20036;-61
2021/09/20 08:49:48;;;;;;;4.88;3.63;;;;;;;-144.51;100.00;69251.94;5116949;28;20047;-62
2021/09/20 08:52:32;;;;;;;5.45;3.67;;;;;;;-144.51;100.00;69251.94;5120999;28;20040;-64
2021/09/20 08:55:18;;;;;;;7.90;3.92;;;;;;;-144.51;100.00;69251.94;5101457;28;20044;-60
2021/09/20 08:58:04;;;;;;;5.32;3.05;;;;;;;-144.51;100.00;69251.94;5108204;28;20044;-62
2021/09/20 09:00:48;;;;;;;8.05;4.65;;;;;;;-144.51;100.00;69251.94;5120653;28;20501;-62
2021/09/20 09:03:35;;;;;;;6.53;4.00;;;;;;;-144.51;100.00;69251.94;5121739;28;20036;-62
2021/09/20 09:06:30;;;;;;;4.82;3.30;;;;;;;-144.51;100.00;69251.94;5121405;28;20040;-63
2021/09/20 09:09:25;;;;;;;7.38;3.00;;;;;;;-144.51;100.00;69251.94;5115010;28;20035;-64
2021/09/20 09:12:21;;;;;;;7.47;3.17;;;;;;;-144.51;100.00;69251.94;5110670;28;20035;-62
2021/09/20 09:15:09;;;;;;;6.57;3.20;;;;;;;-144.51;100.00;69251.94;5122375;28;20039;-66
2021/09/20 09:17:56;;;;;;;6.00;2.70;;;;;;;-144.51;100.00;69251.94;5121156;28;20044;-64
2021/09/20 09:20:41;;;;;;;5.22;3.15;;;;;;;-144.51;100.00;69251.94;5123230;28;20035;-64
2021/09/20 09:23:39;;;;;;;8.27;3.85;;;;;;;-144.51;100.00;69251.94;5121560;28;20047;-61
2021/09/20 09:26:24;;;;;;;6.65;4.70;;;;;;;-144.51;100.00;69251.94;5116778;28;20036;-63
2021/09/20 09:29:13;;;;;;;7.45;4.10;;;;;;;-144.51;100.00;69251.94;5118445;28;20039;-64
2021/09/20 09:32:00;;;;;;;6.53;4.57;;;;;;;-144.51;100.00;69251.94;5119934;28;20483;-62
2021/09/20 09:34:56;;;;;;;8.10;4.00;;;;;;;-144.51;100.00;69251.94;5095371;28;20039;-59
2021/09/20 09:37:44;;;;;;;8.23;3.70;;;;;;;-144.51;100.00;69251.94;5098978;28;20399;-59
2021/09/20 09:40:29;;;;;;;4.20;2.75;;;;;;;-144.51;100.00;69251.94;5100966;28;20040;-59
2021/09/20 09:43:37;;;;;;;6.57;3.60;;;;;;;-144.51;100.00;69251.94;5101054;28;20040;-59
2021/09/20 09:46:25;;;;;;;5.20;3.67;;;;;;;-144.51;100.00;69251.94;5100455;28;20040;-59
2021/09/20 09:49:21;;;;;;;4.88;3.42;;;;;;;-144.51;100.00;69251.94;5094887;28;20036;-59
2021/09/20 09:52:12;;;;;;;4.68;3.25;;;;;;;-144.51;100.00;69251.94;5101037;28;20044;-59
2021/09/20 09:55:01;;;;;;;5.00;3.13;;;;;;;-144.51;100.00;69251.94;5101319;28;20488;-59
2021/09/20 09:57:49;;;;;;;7.65;3.08;;;;;;;-144.51;100.00;69251.94;5098472;28;20036;-59
2021/09/20 10:00:34;;;;;;;7.15;3.20;;;;;;;-144.51;100.00;69251.94;5100889;28;20040;-58
2021/09/20 10:03:19;;;;;;;5.13;3.33;;;;;;;-144.51;100.00;69251.94;5101125;28;20044;-59
2021/09/20 10:06:04;;;;;;;5.38;3.65;;;;;;;-144.51;100.00;69251.94;5100917;28;20035;-59
2021/09/20 10:08:49;;;;;;;3.35;1.60;;;;;;;-144.51;100.00;69251.94;5095037;28;20411;-59
2021/09/20 10:11:36;;;;;;;13.50;3.67;;;;;;;-144.51;100.00;69251.94;5100915;28;20266;-59
2021/09/20 10:14:21;;;;;;;6.50;3.05;;;;;;;-144.51;100.00;69251.94;5100657;28;20044;-59
2021/09/20 10:17:07;;;;;;;7.47;2.53;;;;;;;-144.51;100.00;69251.94;5099773;28;20044;-59
2021/09/20 10:19:54;;;;;;;3.10;2.47;;;;;;;-144.51;100.00;69251.94;5100753;28;20044;-59
2021/09/20 10:22:39;;;;;;;4.72;3.90;;;;;;;-144.51;100.00;69251.94;5100738;28;20044;-59
2021/09/20 10:25:27;;;;;;;4.65;2.92;;;;;;;-144.51;100.00;69251.94;5100986;28;20047;-59
2021/09/20 10:28:12;;;;;;;3.08;2.78;;;;;;;-144.51;100.00;69251.94;5110301;28;20040;-59
2021/09/20 10:30:56;;;;;;;3.80;2.65;;;;;;;-144.51;100.00;69251.94;5100797;28;20488;-58
2021/09/20 10:33:41;;;;;;;4.35;3.60;;;;;;;-144.51;100.00;69251.94;5094479;28;20037;-59
2021/09/20 10:36:48;;;;;;;6.38;3.95;;;;;;;-144.51;100.00;69251.94;5100428;28;20048;-59
2021/09/20 10:39:53;;;;;;;3.97;2.65;;;;;;;-144.51;100.00;69251.94;5100612;28;20040;-59
2021/09/20 10:42:46;;;;;;;4.28;2.42;;;;;;;-144.51;100.00;69251.94;5100358;28;20043;-59
2021/09/20 10:45:37;;;;;;;3.42;2.72;;;;;;;-144.51;100.00;69251.94;5100328;28;20044;-59
2021/09/20 10:48:24;;;;;;;4.78;3.50;;;;;;;-144.51;100.00;69251.94;5096027;28;20048;-58
2021/09/20 10:51:11;;;;;;;5.82;2.95;;;;;;;-144.51;100.00;69251.94;5100327;28;20044;-59
2021/09/20 10:54:12;;;;;;;6.50;3.28;;;;;;;-144.51;100.00;69251.94;5102711;28;20399;-59
2021/09/20 10:57:12;;;;;;;6.78;3.28;;;;;;;-144.51;100.00;69251.94;5103962;28;20044;-59
2021/09/20 11:00:23;;;;;;;4.55;2.90;;;;;;;-144.51;100.00;69251.94;5103926;28;20039;-59
2021/09/20 11:03:44;;;;;;;5.97;2.72;;;;;;;-144.51;100.00;69251.94;5103768;28;20036;-58
2021/09/20 11:06:33;;;;;;;2.85;2.35;;;;;;;-144.51;100.00;69251.94;5103955;28;20044;-58
2021/09/20 11:09:21;;;;;;;8.93;2.92;;;;;;;-144.51;100.00;69251.94;5118441;27;20039;-59
2021/09/20 11:12:09;;;;;;;20.73;6.47;;;;;;;-144.51;100.00;69251.94;5147648;27;20051;-59
2021/09/20 11:15:04;;;;;;;9.73;3.50;;;;;;;-144.51;100.00;69251.94;5145383;27;20039;-59
2021/09/20 11:17:50;;;;;;;22.75;6.10;;;;;;;-144.51;100.00;69251.94;5142774;27;20043;-59
2021/09/20 11:20:38;;;;;;;9.55;3.22;;;;;;;-144.51;100.00;69251.94;5145315;27;20047;-59
2021/09/20 11:23:25;;;;;;;17.27;4.35;;;;;;;-144.51;100.00;69251.94;5145442;27;20398;-59
2021/09/20 11:26:12;;;;;;;5.97;2.92;;;;;;;-144.51;100.00;69251.94;5136896;27;20486;-59
2021/09/20 11:28:56;;;;;;;8.80;3.28;;;;;;;-144.51;100.00;69251.94;5118968;28;20040;-59
2021/09/20 11:31:43;;;;;;;4.57;2.25;;;;;;;-144.51;100.00;69251.94;5124248;28;20047;-59
2021/09/20 11:34:31;;;;;;;4.93;2.17;;;;;;;-144.51;100.00;69251.94;5121573;28;20047;-59
2021/09/20 11:37:21;;;;;;;5.80;2.22;;;;;;;-144.51;100.00;69251.94;5122947;28;20039;-59
2021/09/20 11:40:11;;;;;;;6.15;2.28;;;;;;;-144.51;100.00;69251.94;5124572;28;20047;-59
2021/09/20 11:43:01;;;;;;;2.63;2.08;;;;;;;-144.51;100.00;69251.94;5142548;27;20031;-60
2021/09/20 11:45:45;;;;;;;5.05;2.38;;;;;;;-144.51;100.00;69251.94;5145033;27;20042;-59
2021/09/20 11:48:30;;;;;;;3.55;1.80;;;;;;;-144.51;100.00;69251.94;5140243;27;20035;-59
2021/09/20 11:51:24;;;;;;;2.10;1.23;;;;;;;-144.51;100.00;69251.94;5144770;27;20047;-59
2021/09/20 11:54:27;;;;;;;3.03;2.03;;;;;;;-144.51;100.00;69251.94;5144977;27;20039;-59
2021/09/20 11:57:22;;;;;;;3.53;2.33;;;;;;;-144.51;100.00;69251.94;5142772;27;20047;-59
2021/09/20 12:00:09;;;;;;;3.78;2.05;;;;;;;-144.51;100.00;69251.94;5144569;27;20035;-59
2021/09/20 12:03:00;;;;;;;3.92;2.00;;;;;;;-144.51;100.00;69251.94;5144589;27;20054;-59
2021/09/20 12:05:46;;;;;;;5.05;2.30;;;;;;;-144.51;100.00;69251.94;5144204;27;20039;-59
2021/09/20 12:08:31;;;;;;;2.60;1.40;;;;;;;-144.51;100.00;69251.94;5139340;27;20039;-59
2021/09/20 12:11:22;;;;;;;8.65;1.88;;;;;;;-144.51;100.00;69251.94;5144471;27;20043;-59
2021/09/20 12:14:11;;;;;;;2.55;1.20;;;;;;;-144.51;100.00;69251.94;5144651;27;20043;-60
2021/09/20 12:16:58;;;;;;;2.13;1.52;;;;;;;-144.51;100.00;69251.94;5144314;27;20047;-61
2021/09/20 12:19:52;;;;;;;2.97;1.77;;;;;;;-144.51;100.00;69251.94;5143690;27;20051;-59
2021/09/20 12:22:39;;;;;;;3.70;1.80;;;;;;;-144.51;100.00;69251.94;5128784;27;20035;-59
2021/09/20 12:25:35;;;;;;;6.85;1.00;;;;;;;-144.51;100.00;69251.94;5127030;27;20043;-59
2021/09/20 12:28:22;;;;;;;3.78;0.98;;;;;;;-144.51;100.00;69251.94;5117152;28;20043;-59
2021/09/20 12:31:10;;;;;;;3.08;1.13;;;;;;;-144.51;100.00;69251.94;5123947;27;20039;-59
2021/09/20 12:34:04;;;;;;;6.28;1.50;;;;;;;-144.51;100.00;69251.94;5123442;27;20430;-59
2021/09/20 12:36:54;;;;;;;1.70;0.93;;;;;;;-144.51;100.00;69251.94;5120391;27;20040;-59
2021/09/20 12:39:39;;;;;;;5.38;1.10;;;;;;;-144.51;100.00;69251.94;5123972;27;20483;-59